createdAt,value
2017-10-24T00:01:20.840Z,18.23
2017-10-24T00:03:48.381Z,15.60
2017-10-24T00:06:15.947Z,14.10
2017-10-24T00:08:43.492Z,18.53
2017-10-24T00:11:11.060Z,17.80
2017-10-24T00:13:38.595Z,13.60
2017-10-24T00:16:06.163Z,12.50
2017-10-24T00:18:33.696Z,15.10
2017-10-24T00:21:02.027Z,18.33
2017-10-24T00:23:29.563Z,16.30
2017-10-24T00:25:57.119Z,14.83
2017-10-24T00:28:24.659Z,14.13
2017-10-24T00:30:52.991Z,14.80
2017-10-24T00:33:20.529Z,17.33
2017-10-24T00:35:48.094Z,17.80
2017-10-24T00:38:15.638Z,19.43
2017-10-24T00:40:43.201Z,21.43
2017-10-24T00:43:10.756Z,16.20
2017-10-24T00:45:38.295Z,25.27
2017-10-24T00:48:06.623Z,20.37
2017-10-24T00:50:34.163Z,19.90
2017-10-24T00:53:01.731Z,29.23
2017-10-24T00:55:29.271Z,17.80
2017-10-24T00:57:56.830Z,27.03
2017-10-24T01:00:24.369Z,18.50
2017-10-24T01:02:52.695Z,21.37
2017-10-24T01:05:20.235Z,27.90
2017-10-24T01:07:47.801Z,23.17
2017-10-24T01:10:15.344Z,21.53
2017-10-24T01:12:42.911Z,20.30
2017-10-24T01:15:10.453Z,19.80
2017-10-24T01:17:38.779Z,20.80
2017-10-24T01:20:06.314Z,20.30
2017-10-24T01:22:33.871Z,25.60
2017-10-24T01:25:01.409Z,21.07
2017-10-24T01:27:29.743Z,23.03
2017-10-24T01:29:58.048Z,23.73
2017-10-24T01:32:25.620Z,27.00
2017-10-24T01:34:53.923Z,21.77
2017-10-24T01:37:21.482Z,21.00
2017-10-24T01:39:49.026Z,21.40
2017-10-24T01:42:16.588Z,24.80
2017-10-24T01:44:44.126Z,19.87
2017-10-24T01:47:12.458Z,26.17
2017-10-24T01:49:39.998Z,20.13
2017-10-24T01:52:07.566Z,18.03
2017-10-24T01:54:35.105Z,18.43
2017-10-24T01:57:02.675Z,14.67
2017-10-24T01:59:30.217Z,16.83
2017-10-24T02:01:58.550Z,19.93
2017-10-24T02:04:26.094Z,17.67
2017-10-24T02:06:53.658Z,19.63
2017-10-24T02:09:21.198Z,16.13
2017-10-24T02:11:48.766Z,16.40
2017-10-24T02:14:16.305Z,12.73
2017-10-24T02:16:43.875Z,15.87
2017-10-24T02:19:11.432Z,10.70
2017-10-24T02:21:38.991Z,15.57
2017-10-24T02:24:06.527Z,15.10
2017-10-24T02:26:34.859Z,12.00
2017-10-24T02:29:03.158Z,16.53
2017-10-24T02:31:30.711Z,16.30
2017-10-24T02:33:58.248Z,16.73
2017-10-24T02:36:25.816Z,16.93
2017-10-24T02:38:53.363Z,12.10
2017-10-24T02:41:20.923Z,14.03
2017-10-24T02:43:48.462Z,14.47
2017-10-24T02:46:16.026Z,14.40
2017-10-24T02:48:43.563Z,11.13
2017-10-24T02:51:11.891Z,12.67
2017-10-24T02:53:39.418Z,10.60
2017-10-24T02:56:06.992Z,10.20
2017-10-24T02:58:34.519Z,9.63
2017-10-24T03:01:02.823Z,11.63
2017-10-24T03:03:30.383Z,13.33
2017-10-24T03:05:57.920Z,11.53
2017-10-24T03:08:26.250Z,11.27
2017-10-24T03:10:53.785Z,10.60
2017-10-24T03:13:21.353Z,10.90
2017-10-24T03:15:48.891Z,9.67
2017-10-24T03:18:16.454Z,11.13
2017-10-24T03:20:43.987Z,13.23
2017-10-24T03:23:12.313Z,10.90
2017-10-24T03:25:39.851Z,11.73
2017-10-24T03:28:07.416Z,7.87
2017-10-24T03:30:34.943Z,9.07
2017-10-24T03:33:03.267Z,9.10
2017-10-24T03:35:30.798Z,6.70
2017-10-24T03:37:58.363Z,10.00
2017-10-24T03:40:25.909Z,7.07
2017-10-24T03:42:54.237Z,6.30
2017-10-24T03:45:21.783Z,7.20
2017-10-24T03:47:49.351Z,5.70
2017-10-24T03:50:16.883Z,5.80
2017-10-24T03:52:44.444Z,5.10
2017-10-24T03:55:11.973Z,7.13
2017-10-24T03:57:40.306Z,6.00
2017-10-24T04:00:07.836Z,6.57
2017-10-24T04:02:35.395Z,5.20
2017-10-24T04:05:02.932Z,5.80
2017-10-24T04:07:31.259Z,9.10
2017-10-24T04:09:58.803Z,11.00
2017-10-24T04:12:26.356Z,8.53
2017-10-24T04:14:53.895Z,7.70
2017-10-24T04:17:22.222Z,12.40
2017-10-24T04:19:49.759Z,7.17
2017-10-24T04:22:17.323Z,7.97
2017-10-24T04:24:44.859Z,4.40
2017-10-24T04:27:12.419Z,8.30
2017-10-24T04:29:39.947Z,5.20
2017-10-24T04:32:07.511Z,7.00
2017-10-24T04:34:35.042Z,5.93
2017-10-24T04:37:02.606Z,5.60
2017-10-24T04:39:30.135Z,7.77
2017-10-24T04:41:57.690Z,5.70
2017-10-24T04:44:25.231Z,6.90
2017-10-24T04:46:53.562Z,8.60
2017-10-24T04:49:21.101Z,6.70
2017-10-24T04:51:48.683Z,5.03
2017-10-24T04:54:16.227Z,6.23
2017-10-24T04:56:43.803Z,6.80
2017-10-24T04:59:11.351Z,6.10
2017-10-24T05:01:38.883Z,5.50
2017-10-24T05:04:06.447Z,5.37
2017-10-24T05:06:33.989Z,5.90
2017-10-24T05:09:02.312Z,8.73
2017-10-24T05:11:29.850Z,8.63
2017-10-24T05:13:57.420Z,8.23
2017-10-24T05:16:24.959Z,7.63
2017-10-24T05:18:52.516Z,7.97
2017-10-24T05:21:20.053Z,8.97
2017-10-24T05:23:48.391Z,9.40
2017-10-24T05:26:16.698Z,10.80
2017-10-24T05:28:44.262Z,11.87
2017-10-24T05:31:11.804Z,13.63
2017-10-24T05:33:40.198Z,14.80
2017-10-24T05:36:07.883Z,11.80
2017-10-24T05:38:35.874Z,13.93
2017-10-24T05:41:03.678Z,18.17
2017-10-24T05:43:31.296Z,14.40
2017-10-24T05:45:59.717Z,14.83
2017-10-24T05:48:28.082Z,12.60
2017-10-24T05:50:55.625Z,14.77
2017-10-24T05:53:23.189Z,16.87
2017-10-24T05:55:50.727Z,15.13
2017-10-24T05:58:18.288Z,13.93
2017-10-24T06:00:45.833Z,17.27
2017-10-24T06:03:14.147Z,23.00
2017-10-24T06:05:41.691Z,14.07
2017-10-24T06:08:09.278Z,13.17
2017-10-24T06:10:36.847Z,13.30
2017-10-24T06:13:04.391Z,16.10
2017-10-24T06:15:32.168Z,22.07
2017-10-24T06:17:59.705Z,16.17
2017-10-24T06:20:27.272Z,13.37
2017-10-24T06:22:54.815Z,15.80
2017-10-24T06:25:22.383Z,16.07
2017-10-24T06:27:49.923Z,15.80
2017-10-24T06:30:18.256Z,17.60
2017-10-24T06:32:45.807Z,15.47
2017-10-24T06:35:14.133Z,13.27
2017-10-24T06:37:42.431Z,14.03
2017-10-24T06:40:09.991Z,13.57
2017-10-24T06:42:37.523Z,12.60
2017-10-24T06:45:05.850Z,12.50
2017-10-24T06:47:33.388Z,16.70
2017-10-24T06:50:00.948Z,14.63
2017-10-24T06:52:28.492Z,12.07
2017-10-24T06:54:56.066Z,9.63
2017-10-24T06:57:23.609Z,17.90
2017-10-24T06:59:51.175Z,12.67
2017-10-24T07:02:18.742Z,12.63
2017-10-24T07:04:46.279Z,12.50
2017-10-24T07:07:14.604Z,14.07
2017-10-24T07:09:42.139Z,12.60
2017-10-24T07:12:09.696Z,12.33
2017-10-24T07:14:37.227Z,16.07
2017-10-24T07:17:05.559Z,11.43
2017-10-24T07:19:33.096Z,12.23
2017-10-24T07:22:00.659Z,11.67
2017-10-24T07:24:28.194Z,10.20
2017-10-24T07:26:56.522Z,16.30
2017-10-24T07:29:24.059Z,11.63
2017-10-24T07:31:51.617Z,12.43
2017-10-24T07:34:19.150Z,10.13
2017-10-24T07:36:47.470Z,14.07
2017-10-24T07:39:15.011Z,9.70
2017-10-24T07:41:42.577Z,9.07
2017-10-24T07:44:10.113Z,12.13
2017-10-24T07:46:38.434Z,10.17
2017-10-24T07:49:05.971Z,8.90
2017-10-24T07:51:33.526Z,9.40
2017-10-24T07:54:01.060Z,9.97
2017-10-24T07:56:29.379Z,10.93
2017-10-24T07:58:56.915Z,10.37
2017-10-24T08:01:24.446Z,9.83
2017-10-24T08:03:52.003Z,12.13
2017-10-24T08:06:19.544Z,11.90
2017-10-24T08:08:47.103Z,11.27
2017-10-24T08:11:16.150Z,10.50
2017-10-24T08:13:43.707Z,11.20
2017-10-24T08:16:11.230Z,9.83
2017-10-24T08:18:38.795Z,8.40
2017-10-24T08:21:06.340Z,10.07
2017-10-24T08:23:33.958Z,9.57
2017-10-24T08:26:01.497Z,13.30
2017-10-24T08:28:29.822Z,11.47
2017-10-24T08:30:57.364Z,16.57
2017-10-24T08:33:24.922Z,13.87
2017-10-24T08:35:52.464Z,15.80
2017-10-24T08:38:20.035Z,12.63
2017-10-24T08:40:47.587Z,12.00
2017-10-24T08:43:15.148Z,12.37
2017-10-24T08:45:42.693Z,9.20
2017-10-24T08:48:10.262Z,8.47
2017-10-24T08:50:37.807Z,11.43
2017-10-24T08:53:06.154Z,9.50
2017-10-24T08:55:33.699Z,7.63
2017-10-24T08:58:01.276Z,9.50
2017-10-24T09:00:28.811Z,11.10
2017-10-24T09:02:56.375Z,9.40
2017-10-24T09:05:23.914Z,18.80
2017-10-24T09:07:51.476Z,9.80
2017-10-24T09:14:02.587Z,7.90
2017-10-24T09:22:48.020Z,9.33
2017-10-24T09:25:15.570Z,9.53
2017-10-24T09:27:43.107Z,8.73
2017-10-24T09:30:10.665Z,8.53
2017-10-24T09:32:40.123Z,12.20
2017-10-24T09:35:07.701Z,15.00
2017-10-24T09:37:36.008Z,9.33
2017-10-24T09:40:03.562Z,13.10
2017-10-24T09:42:31.103Z,12.30
2017-10-24T09:44:59.426Z,9.70
2017-10-24T09:47:26.960Z,11.67
2017-10-24T09:49:57.471Z,11.67
2017-10-24T09:52:25.776Z,12.67
2017-10-24T09:54:53.335Z,10.27
2017-10-24T09:57:20.875Z,13.37
2017-10-24T09:59:48.444Z,13.17
2017-10-24T10:02:15.983Z,16.03
2017-10-24T10:04:44.309Z,12.03
2017-10-24T10:07:11.847Z,11.37
2017-10-24T10:09:39.414Z,9.83
2017-10-24T10:12:09.703Z,12.83
2017-10-24T10:14:38.038Z,13.40
2017-10-24T10:17:05.588Z,10.03
2017-10-24T10:19:33.147Z,11.30
2017-10-24T10:22:00.691Z,10.93
2017-10-24T10:24:32.139Z,12.60
2017-10-24T10:26:59.670Z,10.30
2017-10-24T10:29:27.995Z,11.50
2017-10-24T10:31:55.535Z,11.93
2017-10-24T10:34:23.091Z,11.87
2017-10-24T10:36:50.626Z,14.23
2017-10-24T10:39:18.961Z,11.03
2017-10-24T10:41:46.490Z,12.23
2017-10-24T10:44:14.056Z,11.90
2017-10-24T10:46:41.592Z,9.73
2017-10-24T10:49:09.927Z,13.00
2017-10-24T10:51:37.471Z,17.03
2017-10-24T10:54:05.043Z,12.70
2017-10-24T10:56:32.577Z,11.60
2017-10-24T10:59:00.131Z,14.20
2017-10-24T11:01:27.679Z,20.87
2017-10-24T11:03:55.242Z,18.27
2017-10-24T11:06:22.779Z,13.40
2017-10-24T11:08:51.116Z,13.43
2017-10-24T11:11:18.648Z,12.40
2017-10-24T11:13:46.206Z,13.33
2017-10-24T11:16:13.752Z,12.73
2017-10-24T11:18:41.314Z,13.67
2017-10-24T11:21:09.609Z,15.30
2017-10-24T11:23:37.175Z,12.20
2017-10-24T11:26:04.713Z,10.50
2017-10-24T11:28:32.275Z,11.20
2017-10-24T11:30:59.807Z,10.80
2017-10-24T11:33:28.141Z,10.63
2017-10-24T11:35:55.679Z,10.60
2017-10-24T11:38:23.239Z,11.60
2017-10-24T11:40:50.779Z,8.93
2017-10-24T11:43:19.088Z,9.27
2017-10-24T11:45:46.654Z,11.23
2017-10-24T11:48:14.196Z,9.57
2017-10-24T11:50:41.756Z,9.87
2017-10-24T11:53:09.292Z,12.30
2017-10-24T11:55:37.663Z,9.97
2017-10-24T11:58:05.965Z,10.30
2017-10-24T12:00:33.524Z,13.30
2017-10-24T12:03:01.060Z,12.67
2017-10-24T12:05:29.383Z,10.37
2017-10-24T12:07:56.919Z,12.27
2017-10-24T12:10:24.481Z,11.03
2017-10-24T12:12:52.021Z,10.70
2017-10-24T12:15:20.346Z,10.43
2017-10-24T12:17:47.880Z,10.37
2017-10-24T12:20:15.435Z,8.77
2017-10-24T12:22:42.962Z,11.10
2017-10-24T12:25:10.520Z,7.73
2017-10-24T12:27:38.050Z,8.00
2017-10-24T12:30:05.615Z,11.10
2017-10-24T12:32:33.148Z,10.43
2017-10-24T12:35:00.699Z,6.90
2017-10-24T12:37:28.240Z,7.97
2017-10-24T12:39:56.560Z,5.67
2017-10-24T12:42:29.631Z,6.53
2017-10-24T12:45:02.129Z,6.63
2017-10-24T12:47:29.664Z,5.63
2017-10-24T12:50:15.028Z,6.83
2017-10-24T12:52:42.944Z,5.80
2017-10-24T12:55:10.506Z,7.03
2017-10-24T12:57:40.695Z,5.70
2017-10-24T13:00:10.936Z,5.93
2017-10-24T13:02:38.466Z,6.27
2017-10-24T13:05:21.832Z,5.80
2017-10-24T13:07:49.363Z,8.43
2017-10-24T13:10:16.923Z,6.40
2017-10-24T13:12:44.464Z,5.40
2017-10-24T13:15:12.792Z,5.87
2017-10-24T13:17:40.334Z,5.67
2017-10-24T13:20:07.891Z,6.00
2017-10-24T13:22:35.414Z,5.30
2017-10-24T13:25:03.733Z,5.77
2017-10-24T13:27:32.683Z,6.07
2017-10-24T13:30:01.025Z,6.17
2017-10-24T13:32:28.563Z,6.60
2017-10-24T13:34:56.095Z,5.93
2017-10-24T13:37:23.644Z,5.50
2017-10-24T13:39:51.944Z,7.20
2017-10-24T13:42:19.498Z,7.23
2017-10-24T13:44:47.027Z,9.87
2017-10-24T13:47:15.358Z,6.80
2017-10-24T13:49:42.900Z,5.90
2017-10-24T13:52:10.469Z,7.53
2017-10-24T13:54:38.003Z,9.20
2017-10-24T13:57:06.319Z,5.73
2017-10-24T13:59:33.843Z,6.17
2017-10-24T14:02:01.403Z,6.30
2017-10-24T14:04:34.715Z,6.23
2017-10-24T14:07:07.864Z,8.10
2017-10-24T14:09:40.972Z,9.47
2017-10-24T14:12:09.301Z,8.67
2017-10-24T14:14:36.839Z,6.17
2017-10-24T14:17:04.395Z,9.77
2017-10-24T14:19:31.931Z,5.60
2017-10-24T14:21:59.491Z,6.37
2017-10-24T14:24:27.789Z,5.97
2017-10-24T14:26:55.351Z,6.37
2017-10-24T14:29:22.892Z,5.97
2017-10-24T14:31:50.468Z,6.53
2017-10-24T14:34:18.004Z,5.90
2017-10-24T14:36:46.299Z,5.67
2017-10-24T14:39:13.847Z,7.00
2017-10-24T14:41:41.391Z,7.33
2017-10-24T14:44:09.719Z,7.00
2017-10-24T14:46:37.256Z,6.10
2017-10-24T14:49:04.811Z,9.20
2017-10-24T14:51:32.346Z,11.83
2017-10-24T14:54:00.681Z,6.63
2017-10-24T14:56:28.212Z,7.37
2017-10-24T14:58:55.774Z,8.37
2017-10-24T15:01:23.315Z,7.30
2017-10-24T15:03:51.630Z,6.13
2017-10-24T15:06:19.158Z,7.30
2017-10-24T15:08:46.716Z,7.67
2017-10-24T15:11:14.263Z,7.40
2017-10-24T15:13:42.583Z,6.60
2017-10-24T15:16:10.106Z,6.77
2017-10-24T15:18:38.429Z,7.30
2017-10-24T15:21:05.959Z,9.03
2017-10-24T15:23:33.525Z,8.47
2017-10-24T15:26:01.059Z,9.37
2017-10-24T15:28:29.388Z,10.57
2017-10-24T15:30:56.924Z,8.17
2017-10-24T15:33:24.483Z,10.17
2017-10-24T15:35:52.015Z,8.50
2017-10-24T15:38:20.306Z,8.70
2017-10-24T15:40:47.860Z,8.47
2017-10-24T15:43:16.159Z,9.93
2017-10-24T15:45:43.716Z,8.97
2017-10-24T15:48:11.247Z,8.70
2017-10-24T15:50:39.580Z,13.97
2017-10-24T15:53:07.886Z,11.03
2017-10-24T15:55:35.442Z,10.70
2017-10-24T15:58:02.975Z,14.77
2017-10-24T16:00:30.540Z,11.50
2017-10-24T16:02:58.073Z,10.20
2017-10-24T16:05:25.632Z,8.97
2017-10-24T16:07:53.167Z,11.97
2017-10-24T16:10:21.500Z,11.43
2017-10-24T16:12:49.048Z,9.40
2017-10-24T16:15:16.615Z,13.63
2017-10-24T16:17:44.152Z,15.30
2017-10-24T16:20:11.703Z,18.20
2017-10-24T16:22:39.241Z,13.80
2017-10-24T16:25:07.559Z,13.70
2017-10-24T16:27:35.096Z,17.17
2017-10-24T16:30:02.670Z,13.67
2017-10-24T16:32:30.233Z,14.90
2017-10-24T16:34:57.804Z,12.60
2017-10-24T16:37:25.342Z,14.23
2017-10-24T16:39:52.914Z,14.10
2017-10-24T16:42:20.459Z,13.70
2017-10-24T16:44:48.023Z,16.03
2017-10-24T16:47:15.571Z,12.10
2017-10-24T16:49:43.140Z,11.20
2017-10-24T16:52:10.675Z,13.47
2017-10-24T16:54:38.976Z,15.90
2017-10-24T16:57:06.550Z,14.50
2017-10-24T16:59:34.099Z,15.13
2017-10-24T17:02:01.672Z,13.03
2017-10-24T17:04:29.230Z,15.30
2017-10-24T17:06:56.797Z,14.50
2017-10-24T17:09:24.340Z,14.77
2017-10-24T17:11:51.912Z,15.70
2017-10-24T17:14:19.459Z,12.50
2017-10-24T17:16:47.025Z,14.37
2017-10-24T17:19:14.567Z,15.53
2017-10-24T17:21:42.135Z,16.93
2017-10-24T17:24:09.676Z,19.10
2017-10-24T17:26:38.003Z,17.90
2017-10-24T17:29:05.548Z,20.47
2017-10-24T17:31:33.116Z,19.17
2017-10-24T17:34:00.652Z,20.33
2017-10-24T17:36:28.215Z,19.73
2017-10-24T17:38:55.769Z,19.93
2017-10-24T17:41:23.346Z,19.73
2017-10-24T17:43:50.887Z,22.10
2017-10-24T17:46:18.489Z,19.27
2017-10-24T17:48:46.041Z,19.93
2017-10-24T17:51:13.604Z,22.10
2017-10-24T17:53:41.162Z,20.67
2017-10-24T17:56:08.726Z,23.13
2017-10-24T17:58:36.288Z,19.53
2017-10-24T18:01:03.856Z,19.03
2017-10-24T18:03:31.404Z,21.10
2017-10-24T18:05:58.987Z,20.93
2017-10-24T18:08:26.541Z,19.40
2017-10-24T18:10:54.132Z,18.13
2017-10-24T18:13:22.440Z,19.30
2017-10-24T18:15:50.004Z,18.57
2017-10-24T18:18:17.536Z,17.47
2017-10-24T18:20:45.114Z,18.83
2017-10-24T18:23:12.650Z,21.40
2017-10-24T18:25:40.976Z,17.37
2017-10-24T18:28:08.516Z,17.47
2017-10-24T18:30:36.088Z,21.50
2017-10-24T18:33:03.651Z,18.90
2017-10-24T18:35:31.993Z,19.03
2017-10-24T18:37:59.550Z,24.10
2017-10-24T18:40:27.140Z,23.20
2017-10-24T18:42:54.686Z,23.20
2017-10-24T18:45:22.270Z,15.73
2017-10-24T18:47:49.816Z,17.87
2017-10-24T18:50:17.387Z,18.13
2017-10-24T18:52:44.927Z,20.30
2017-10-24T18:55:12.492Z,17.90
2017-10-24T18:57:40.050Z,19.90
2017-10-24T19:00:07.598Z,22.63
2017-10-24T19:02:35.179Z,26.90
2017-10-24T19:05:02.735Z,18.93
2017-10-24T19:07:30.316Z,17.70
2017-10-24T19:09:57.874Z,19.23
2017-10-24T19:12:25.458Z,18.13
2017-10-24T19:14:53.002Z,20.77
2017-10-24T19:17:20.590Z,23.53
2017-10-24T19:19:48.135Z,19.53
2017-10-24T19:22:15.740Z,20.20
2017-10-24T19:24:43.278Z,25.80
2017-10-24T19:27:11.615Z,21.03
2017-10-24T19:29:39.174Z,19.90
2017-10-24T19:32:06.736Z,19.30
2017-10-24T19:34:34.280Z,24.97
2017-10-24T19:37:01.857Z,22.10
2017-10-24T19:39:30.167Z,27.60
2017-10-24T19:41:58.509Z,25.47
2017-10-24T19:44:26.070Z,31.73
2017-10-24T19:46:53.645Z,30.67
2017-10-24T19:49:21.193Z,26.43
2017-10-24T19:51:48.763Z,27.07
2017-10-24T19:54:16.308Z,24.60
2017-10-24T19:56:43.875Z,31.37
2017-10-24T19:59:11.427Z,31.17
2017-10-24T20:01:39.008Z,37.40
2017-10-24T20:04:06.568Z,31.13
2017-10-24T20:06:34.145Z,29.80
2017-10-24T20:09:02.532Z,35.17
2017-10-24T20:11:30.861Z,34.47
2017-10-24T20:13:58.411Z,42.07
2017-10-24T20:16:26.004Z,36.67
2017-10-24T20:18:53.578Z,47.90
2017-10-24T20:21:21.159Z,36.70
2017-10-24T20:23:49.468Z,38.47
2017-10-24T20:26:17.033Z,40.50
2017-10-24T20:28:44.570Z,36.37
2017-10-24T20:31:12.139Z,39.73
2017-10-24T20:33:39.687Z,40.63
2017-10-24T20:36:07.260Z,42.17
2017-10-24T20:38:34.808Z,40.67
2017-10-24T20:41:02.372Z,43.40
2017-10-24T20:43:29.919Z,37.47
2017-10-24T20:45:57.490Z,31.90
2017-10-24T20:48:25.035Z,35.30
2017-10-24T20:50:53.364Z,48.53
2017-10-24T20:53:21.683Z,44.10
2017-10-24T20:55:50.019Z,42.27
2017-10-24T20:58:17.572Z,42.60
2017-10-24T21:00:45.150Z,34.77
2017-10-24T21:03:12.703Z,36.17
2017-10-24T21:05:40.298Z,37.70
2017-10-24T21:08:08.651Z,37.40
2017-10-24T21:10:36.219Z,43.47
2017-10-24T21:13:03.791Z,51.27
2017-10-24T21:15:31.408Z,37.87
2017-10-24T21:17:59.236Z,38.40
2017-10-24T21:20:26.785Z,37.70
2017-10-24T21:22:55.123Z,50.27
2017-10-24T21:25:22.688Z,44.33
2017-10-24T21:27:51.027Z,43.30
2017-10-24T21:30:18.575Z,45.07
2017-10-24T21:32:46.143Z,35.33
2017-10-24T21:35:13.688Z,32.27
2017-10-24T21:37:42.053Z,43.60
2017-10-24T21:40:09.592Z,33.73
2017-10-24T21:42:37.164Z,36.60
2017-10-24T21:45:04.718Z,40.53
2017-10-24T21:47:32.292Z,36.07
2017-10-24T21:50:00.619Z,37.20
2017-10-24T21:52:28.179Z,33.20
2017-10-24T21:54:55.720Z,31.67
2017-10-24T21:57:23.292Z,30.20
2017-10-24T21:59:50.837Z,33.63
2017-10-24T22:02:18.436Z,29.40
2017-10-24T22:04:45.983Z,39.67
2017-10-24T22:07:13.541Z,32.90
2017-10-24T22:09:41.074Z,31.17
2017-10-24T22:12:08.639Z,34.17
2017-10-24T22:14:36.171Z,38.33
2017-10-24T22:17:04.499Z,45.43
2017-10-24T22:19:32.031Z,34.60
2017-10-24T22:21:59.591Z,35.03
2017-10-24T22:24:27.134Z,36.50
2017-10-24T22:26:55.464Z,36.47
2017-10-24T22:29:22.997Z,29.60
2017-10-24T22:52:08.752Z,42.73
2017-10-24T22:55:01.195Z,40.47
2017-10-24T22:57:28.761Z,33.70
2017-10-24T22:59:57.078Z,37.03
2017-10-24T23:02:25.403Z,26.87
2017-10-24T23:04:52.939Z,25.50
2017-10-24T23:07:20.506Z,26.10
2017-10-24T23:09:48.046Z,23.00
2017-10-24T23:12:16.370Z,27.63
2017-10-24T23:14:43.915Z,26.17
2017-10-24T23:17:11.488Z,24.50
2017-10-24T23:19:39.020Z,27.77
2017-10-24T23:22:06.586Z,24.00
2017-10-24T23:24:34.126Z,26.30
2017-10-24T23:27:01.666Z,24.43
2017-10-24T23:29:30.010Z,25.63
2017-10-24T23:31:57.564Z,23.93
2017-10-24T23:34:25.126Z,23.70
2017-10-24T23:36:52.665Z,19.60
2017-10-24T23:39:20.232Z,25.37
2017-10-24T23:41:47.774Z,20.87
2017-10-24T23:44:15.334Z,20.20
2017-10-24T23:46:42.875Z,20.50
2017-10-24T23:49:11.217Z,16.50
2017-10-24T23:51:38.771Z,16.07
2017-10-24T23:54:06.340Z,14.30
2017-10-24T23:56:33.874Z,16.70
2017-10-24T23:59:01.426Z,15.70
